Time;durP1;ratioP1;P1;durP2;ratioP2;P2;SDS_P1;SDS_P2;PMS_P1;PMS_P2;Temp;Humidity;BMP_temperature;BMP_pressure;BME280_temperature;BME280_humidity;BME280_pressure;Samples;Min_cycle;Max_cycle;Signal;HPM_P1;HPM_P2
2021/09/24 00:01:25;;;;;;;2.70;1.77;;;12.60;99.90;;;12.39;100.00;101724.69;4153396;28;20497;-77
2021/09/24 00:03:27;;;;;;;2.63;2.10;;;12.60;99.90;;;12.47;100.00;101729.25;4153104;28;20453;-76
2021/09/24 00:05:28;;;;;;;2.85;1.88;;;12.60;99.90;;;12.38;100.00;101723.00;4153022;28;20097;-76
2021/09/24 00:07:29;;;;;;;2.97;1.92;;;12.50;99.90;;;12.26;100.00;101716.22;4153388;28;20030;-77
2021/09/24 00:09:30;;;;;;;3.47;1.98;;;12.50;99.90;;;12.26;100.00;101721.50;4161917;28;20119;-77
2021/09/24 00:11:31;;;;;;;5.10;1.98;;;12.50;99.90;;;12.15;100.00;101719.03;4169439;28;20018;-76
2021/09/24 00:13:32;;;;;;;2.67;1.90;;;12.40;99.90;;;12.19;100.00;101715.94;4169338;28;20025;-76
2021/09/24 00:15:33;;;;;;;4.18;2.15;;;12.40;99.90;;;12.14;100.00;101717.34;4164229;28;20065;-76
2021/09/24 00:17:34;;;;;;;3.58;2.55;;;12.40;99.90;;;12.09;100.00;101715.16;4136804;28;20034;-76
2021/09/24 00:19:35;;;;;;;2.92;1.63;;;12.40;99.90;;;12.07;100.00;101717.09;4153958;28;20041;-76
2021/09/24 00:21:36;;;;;;;2.90;1.60;;;12.40;99.90;;;12.09;100.00;101715.16;4154113;28;20624;-76
2021/09/24 00:23:37;;;;;;;5.15;2.75;;;12.30;99.90;;;12.24;100.00;101719.97;4154231;28;20045;-76
2021/09/24 00:25:38;;;;;;;4.57;2.53;;;12.30;99.90;;;12.27;100.00;101702.03;4152905;28;20025;-76
2021/09/24 00:27:38;;;;;;;2.38;1.83;;;12.40;99.90;;;12.23;100.00;101705.09;4154077;28;20065;-76
2021/09/24 00:29:39;;;;;;;4.32;2.42;;;12.40;99.90;;;12.19;100.00;101709.81;4152720;28;20422;-76
2021/09/24 00:31:40;;;;;;;2.00;1.80;;;12.40;99.90;;;12.26;100.00;101704.78;4152971;28;20449;-76
2021/09/24 00:33:41;;;;;;;4.20;2.80;;;12.40;99.90;;;12.44;100.00;101705.72;4152764;28;20532;-76
2021/09/24 00:35:42;;;;;;;3.78;2.20;;;12.50;99.90;;;12.47;100.00;101702.78;4152835;28;20080;-76
2021/09/24 00:37:44;;;;;;;3.67;2.70;;;12.60;99.90;;;12.32;100.00;101710.34;4152574;28;20022;-76
2021/09/24 00:39:44;;;;;;;2.80;2.20;;;12.60;99.90;;;12.18;100.00;101697.59;4152076;28;20107;-76
2021/09/24 00:41:45;;;;;;;3.63;2.15;;;12.50;99.90;;;12.10;100.00;101694.81;4153701;28;20057;-76
2021/09/24 00:43:46;;;;;;;3.35;2.15;;;12.40;99.90;;;12.10;100.00;101698.28;4147033;28;20065;-76
2021/09/24 00:45:47;;;;;;;4.78;2.53;;;12.40;99.90;;;12.27;100.00;101698.53;4155005;28;20037;-76
2021/09/24 00:47:48;;;;;;;3.72;2.63;;;12.40;99.90;;;12.38;100.00;101699.19;4152817;28;20084;-76
2021/09/24 00:49:50;;;;;;;3.17;2.67;;;12.50;99.90;;;12.22;100.00;101698.94;4153715;28;20046;-76
2021/09/24 00:51:51;;;;;;;4.85;2.38;;;12.40;99.90;;;12.10;100.00;101695.63;4153822;28;20026;-76
2021/09/24 00:53:53;;;;;;;3.80;2.40;;;12.40;99.90;;;12.03;100.00;101693.72;4152488;28;20030;-76
2021/09/24 00:55:53;;;;;;;3.53;2.53;;;12.40;99.90;;;12.10;100.00;101695.63;4153847;28;20033;-76
2021/09/24 00:57:55;;;;;;;4.22;2.17;;;12.40;99.90;;;12.07;100.00;101698.56;4152578;28;20021;-76
2021/09/24 00:59:56;;;;;;;2.95;2.22;;;12.30;99.90;;;11.97;100.00;101689.84;4152511;28;20109;-76
2021/09/24 01:01:58;;;;;;;3.28;2.17;;;12.30;99.90;;;12.02;100.00;101687.59;4153547;28;20482;-76
2021/09/24 01:03:59;;;;;;;4.60;2.83;;;12.30;99.90;;;12.01;100.00;101685.06;4153494;28;20030;-76
2021/09/24 01:06:00;;;;;;;2.88;2.42;;;12.20;99.90;;;11.96;100.00;101692.59;4142821;28;20088;-76
2021/09/24 01:08:01;;;;;;;4.18;2.28;;;12.20;99.90;;;11.95;100.00;101686.47;4153573;28;20069;-76
2021/09/24 01:10:04;;;;;;;5.18;2.35;;;12.20;99.90;;;11.95;100.00;101673.25;4166626;28;20056;-76
2021/09/24 01:12:06;;;;;;;4.53;2.38;;;12.20;99.90;;;11.94;100.00;101674.25;4153521;28;20101;-76
2021/09/24 01:14:07;;;;;;;4.22;3.10;;;12.20;99.90;;;11.91;100.00;101682.47;4152184;28;20028;-76
2021/09/24 01:16:08;;;;;;;2.55;2.20;;;12.20;99.90;;;11.82;100.00;101678.03;4152289;28;20026;-76
2021/09/24 01:18:09;;;;;;;3.53;2.42;;;12.10;99.90;;;11.83;100.00;101679.69;4151911;28;20053;-76
2021/09/24 01:20:13;;;;;;;2.90;2.35;;;12.20;99.90;;;11.81;100.00;101684.28;4152301;28;20030;-76
2021/09/24 01:22:14;;;;;;;6.00;2.58;;;12.10;99.90;;;11.88;100.00;101685.41;4135879;28;20034;-76
2021/09/24 01:24:15;;;;;;;2.70;2.10;;;12.10;99.90;;;11.81;100.00;101672.88;4152106;28;20510;-76
2021/09/24 01:26:16;;;;;;;3.13;2.33;;;12.10;99.90;;;11.86;100.00;101687.31;4152016;28;20517;-76
2021/09/24 01:28:18;;;;;;;3.50;2.42;;;12.10;99.90;;;11.87;100.00;101677.59;4152150;28;20457;-76
2021/09/24 01:30:19;;;;;;;3.22;2.58;;;12.10;99.90;;;11.89;100.00;101680.91;4153148;28;20049;-76
2021/09/24 01:32:20;;;;;;;4.00;2.30;;;12.10;99.90;;;11.83;100.00;101674.41;4151989;28;20097;-76
2021/09/24 01:34:21;;;;;;;3.50;2.63;;;12.10;99.90;;;11.71;100.00;101678.16;4152775;28;20030;-76
2021/09/24 01:36:22;;;;;;;3.28;2.75;;;12.00;99.90;;;11.71;100.00;101666.78;4152016;28;20092;-77
2021/09/24 01:38:23;;;;;;;3.92;2.70;;;12.00;99.90;;;11.79;100.00;101670.38;4153081;28;20076;-76
2021/09/24 01:40:24;;;;;;;3.60;2.95;;;12.00;99.90;;;11.80;100.00;101661.47;4151848;28;20029;-76
2021/09/24 01:42:25;;;;;;;4.82;2.40;;;12.00;99.90;;;11.63;100.00;101659.50;4152992;28;20026;-76
2021/09/24 01:44:26;;;;;;;3.10;2.25;;;12.00;99.90;;;11.67;100.00;101668.84;4155094;28;20478;-76
2021/09/24 01:46:27;;;;;;;2.65;2.20;;;12.00;99.90;;;11.58;100.00;101653.81;4152958;28;20057;-76
2021/09/24 01:48:28;;;;;;;3.47;2.10;;;11.90;99.90;;;11.63;100.00;101667.44;4151516;28;20032;-76
2021/09/24 01:50:29;;;;;;;2.92;2.00;;;11.90;99.90;;;11.61;100.00;101658.81;4151555;28;20049;-76
2021/09/24 01:52:30;;;;;;;2.97;2.45;;;11.80;99.90;;;11.64;100.00;101663.81;4152699;28;20029;-76
2021/09/24 01:54:31;;;;;;;6.20;3.00;;;11.80;99.90;;;11.58;100.00;101659.09;4151727;28;20072;-76
2021/09/24 01:56:32;;;;;;;4.63;2.60;;;11.90;99.90;;;11.59;100.00;101658.94;4152848;28;20504;-76
2021/09/24 01:58:33;;;;;;;3.13;2.20;;;11.80;99.90;;;11.58;100.00;101656.47;4151452;28;20029;-76
2021/09/24 02:00:34;;;;;;;2.85;2.42;;;11.80;99.90;;;11.60;100.00;101660.63;4152798;28;20018;-76
2021/09/24 02:02:35;;;;;;;1.95;1.70;;;11.80;99.90;;;11.61;100.00;101662.31;4152800;28;20107;-76
2021/09/24 02:04:36;;;;;;;3.65;2.40;;;11.80;99.90;;;11.66;100.00;101665.34;4151331;28;20026;-76
2021/09/24 02:06:37;;;;;;;3.20;2.58;;;11.90;99.90;;;11.67;100.00;101660.91;4152519;28;20056;-76
2021/09/24 02:08:38;;;;;;;4.43;2.20;;;11.90;99.90;;;11.63;100.00;101660.34;4152926;28;20072;-76
2021/09/24 02:10:39;;;;;;;4.03;2.50;;;11.80;99.90;;;11.59;100.00;101663.38;4164013;28;20038;-76
2021/09/24 02:12:40;;;;;;;3.08;2.15;;;11.80;99.90;;;11.53;100.00;101650.72;4151463;28;20052;-76
2021/09/24 02:14:41;;;;;;;4.72;1.92;;;11.80;99.90;;;11.49;100.00;101652.84;4152561;28;20113;-76
2021/09/24 02:16:42;;;;;;;2.95;1.98;;;11.80;99.90;;;11.40;100.00;101648.41;4152447;28;20394;-76
2021/09/24 02:18:43;;;;;;;1.83;1.63;;;11.80;99.90;;;11.43;100.00;101652.56;4152326;28;20029;-76
2021/09/24 02:20:44;;;;;;;2.63;1.80;;;11.70;99.90;;;11.46;100.00;101650.50;4151387;28;20079;-76
2021/09/24 02:22:45;;;;;;;2.55;1.83;;;11.70;99.90;;;11.46;100.00;101652.28;4151342;28;20094;-76
2021/09/24 02:24:46;;;;;;;3.65;1.80;;;11.70;99.90;;;11.34;100.00;101643.66;4151167;28;20028;-76
2021/09/24 02:26:47;;;;;;;3.33;1.70;;;11.60;99.90;;;11.23;100.00;101643.78;4151306;28;20520;-76
2021/09/24 02:28:48;;;;;;;3.95;2.63;;;11.50;99.90;;;11.27;100.00;101641.72;4152468;28;20107;-76
2021/09/24 02:30:50;;;;;;;5.30;2.05;;;11.50;99.90;;;11.30;100.00;101641.44;4152408;28;20066;-76
2021/09/24 02:32:51;;;;;;;2.40;1.70;;;11.50;99.90;;;11.37;100.00;101637.28;4151033;28;20053;-76
2021/09/24 02:34:52;;;;;;;2.90;1.92;;;11.60;99.90;;;11.39;99.92;101630.03;4151009;28;20034;-76
2021/09/24 02:36:53;;;;;;;1.70;1.42;;;11.60;99.90;;;11.36;100.00;101631.16;4152423;28;20026;-76
2021/09/24 02:38:54;;;;;;;2.50;1.90;;;11.60;99.90;;;11.26;100.00;101621.56;4151056;28;20085;-76
2021/09/24 02:40:55;;;;;;;3.60;1.83;;;11.50;99.90;;;11.33;99.19;101625.31;4152116;28;20033;-76
2021/09/24 02:42:56;;;;;;;4.03;2.75;;;11.50;99.90;;;11.35;98.64;101626.03;4152194;28;20026;-76
2021/09/24 02:44:57;;;;;;;3.67;1.88;;;11.50;99.90;;;11.29;99.15;101623.94;4154396;28;20037;-76
2021/09/24 02:46:58;;;;;;;4.18;2.40;;;11.50;99.90;;;11.25;99.81;101622.53;4150883;28;20045;-76
2021/09/24 02:48:59;;;;;;;3.22;2.25;;;11.50;99.90;;;11.31;100.00;101616.69;4150767;28;20057;-76
2021/09/24 02:51:00;;;;;;;3.17;2.13;;;11.50;99.90;;;11.31;100.00;101616.69;4150929;28;20038;-77
2021/09/24 02:53:01;;;;;;;3.10;2.53;;;11.60;99.90;;;11.22;100.00;101613.09;4150979;28;20061;-76
2021/09/24 02:55:04;;;;;;;3.95;2.08;;;11.50;99.90;;;11.21;100.00;101615.84;4150975;28;20112;-76
2021/09/24 02:57:06;;;;;;;4.78;2.22;;;11.60;99.90;;;11.28;100.00;101619.63;4150969;28;20029;-76
2021/09/24 02:59:07;;;;;;;2.28;1.90;;;11.50;99.90;;;11.32;100.00;101615.72;4150869;28;20032;-76
2021/09/24 03:01:08;;;;;;;2.00;1.80;;;11.50;99.90;;;11.29;100.00;101610.72;4152194;28;20034;-76
2021/09/24 03:03:09;;;;;;;2.90;2.10;;;11.50;99.90;;;11.24;100.00;101610.28;4150076;28;20037;-76
2021/09/24 03:05:11;;;;;;;2.58;2.15;;;11.50;99.90;;;11.26;100.00;101603.09;4150635;28;20082;-75
2021/09/24 03:07:12;;;;;;;3.95;2.08;;;11.50;99.90;;;11.27;100.00;101602.09;4152025;28;20506;-76
2021/09/24 03:09:13;;;;;;;4.15;2.20;;;11.50;99.90;;;11.27;100.00;101605.56;4158476;28;20026;-76
2021/09/24 03:11:13;;;;;;;2.10;1.77;;;11.50;99.90;;;11.24;99.56;101599.72;4157462;28;20033;-76
2021/09/24 03:13:14;;;;;;;2.58;1.98;;;11.50;99.90;;;11.22;99.31;101601.69;4150824;28;20022;-76
2021/09/24 03:15:16;;;;;;;3.13;1.83;;;11.50;99.90;;;11.16;99.02;101603.06;4134414;28;20026;-76
2021/09/24 03:17:16;;;;;;;2.65;2.20;;;11.40;99.90;;;11.21;98.55;101590.28;4150851;28;20029;-76
2021/09/24 03:19:19;;;;;;;3.47;1.67;;;11.40;99.90;;;11.19;98.60;101591.41;4150649;28;20108;-76
2021/09/24 03:21:20;;;;;;;2.40;2.08;;;11.40;99.90;;;11.13;98.65;101591.94;4150735;28;20509;-76
2021/09/24 03:23:22;;;;;;;3.92;2.25;;;11.40;99.90;;;11.08;99.21;101580.00;4151967;28;20474;-76
2021/09/24 03:25:23;;;;;;;3.15;1.70;;;11.40;99.90;;;11.15;99.03;101590.00;4150865;28;20129;-76
2021/09/24 03:27:24;;;;;;;2.00;1.70;;;11.40;99.90;;;11.15;98.72;101588.19;4151994;28;20041;-76
2021/09/24 03:29:25;;;;;;;3.17;2.05;;;11.30;99.90;;;11.13;98.67;101586.66;4150612;28;20476;-76
2021/09/24 03:31:26;;;;;;;3.25;1.80;;;11.30;99.90;;;11.10;98.96;101588.63;4150594;28;20033;-76
2021/09/24 03:33:27;;;;;;;3.95;2.00;;;11.30;99.90;;;11.13;98.74;101582.22;4150528;28;20068;-76
2021/09/24 03:35:28;;;;;;;4.32;2.22;;;11.30;99.90;;;11.09;98.61;101575.53;4150724;28;20517;-76
2021/09/24 03:37:29;;;;;;;3.72;1.83;;;11.30;99.90;;;11.11;98.51;101579.72;4151861;28;20022;-76
2021/09/24 03:39:30;;;;;;;2.33;2.00;;;11.30;99.90;;;11.07;98.52;101580.97;4150461;28;20105;-76
2021/09/24 03:41:31;;;;;;;2.80;1.77;;;11.30;99.90;;;11.01;98.53;101573.63;4150746;28;20022;-77
2021/09/24 03:43:32;;;;;;;4.38;2.83;;;11.30;99.90;;;11.04;98.51;101577.78;4151858;28;20084;-76
2021/09/24 03:45:33;;;;;;;2.65;2.25;;;11.20;99.90;;;11.11;98.39;101578.88;4154117;28;20026;-76
2021/09/24 03:47:35;;;;;;;3.78;2.22;;;11.30;99.90;;;11.06;98.96;101570.53;4150514;28;20089;-76
2021/09/24 03:49:36;;;;;;;3.10;2.80;;;11.30;99.90;;;11.06;100.00;101576.66;4150354;28;20061;-76
2021/09/24 03:51:37;;;;;;;4.68;2.45;;;11.30;99.90;;;11.07;100.00;101570.41;4150575;28;20109;-76
2021/09/24 03:53:38;;;;;;;3.58;2.75;;;11.30;99.90;;;11.09;100.00;101576.38;4150518;28;20060;-76
2021/09/24 03:55:39;;;;;;;4.35;2.60;;;11.30;99.90;;;11.07;100.00;101567.78;4150334;28;20064;-77
2021/09/24 03:57:40;;;;;;;3.58;2.00;;;11.40;99.90;;;11.05;100.00;101574.19;4150602;28;20049;-76
2021/09/24 03:59:41;;;;;;;3.22;2.33;;;11.30;99.90;;;11.07;100.00;101567.78;4150473;28;20112;-76
2021/09/24 04:01:42;;;;;;;3.88;2.40;;;11.30;99.90;;;11.04;100.00;101573.34;4150417;28;20113;-77
2021/09/24 04:03:43;;;;;;;5.03;2.40;;;11.30;99.90;;;11.04;100.00;101583.06;4151346;28;20026;-76
2021/09/24 04:05:44;;;;;;;3.67;2.40;;;11.30;99.90;;;10.96;100.00;101567.91;4139048;28;20053;-77
2021/09/24 04:07:45;;;;;;;2.97;2.00;;;11.30;99.90;;;11.04;100.00;101568.06;4158404;28;20371;-76
2021/09/24 04:09:46;;;;;;;2.92;2.20;;;11.20;99.90;;;11.07;100.00;101573.06;4161335;28;20032;-77
2021/09/24 04:11:47;;;;;;;3.00;2.50;;;11.30;99.90;;;11.09;100.00;101575.53;4150218;28;20041;-76
2021/09/24 04:13:48;;;;;;;8.70;2.90;;;11.30;99.90;;;11.12;100.00;101583.19;4163946;28;20033;-77
2021/09/24 04:15:49;;;;;;;5.97;2.65;;;11.30;99.90;;;11.11;100.00;101571.78;4135385;28;20027;-76
2021/09/24 04:17:50;;;;;;;3.72;3.28;;;11.30;99.90;;;11.13;100.00;101584.03;4154468;28;20552;-76
2021/09/24 04:19:51;;;;;;;4.00;3.25;;;11.40;99.90;;;11.14;100.00;101583.88;4136674;28;20591;-78
2021/09/24 04:21:52;;;;;;;4.20;2.88;;;11.40;99.90;;;11.15;100.00;101587.34;4153227;28;20057;-77
2021/09/24 04:23:53;;;;;;;6.40;3.20;;;11.40;99.90;;;11.08;100.00;101577.34;4153263;28;20080;-77
2021/09/24 04:25:54;;;;;;;3.20;2.78;;;11.40;99.90;;;11.13;100.00;101581.38;4154353;28;20084;-77
2021/09/24 04:27:55;;;;;;;5.18;2.70;;;11.40;99.90;;;11.12;100.00;101580.56;4154241;28;20469;-77
2021/09/24 04:29:56;;;;;;;5.22;2.42;;;11.30;99.90;;;11.09;100.00;101584.31;4153152;28;20056;-77
2021/09/24 04:31:57;;;;;;;2.97;2.10;;;11.30;99.90;;;11.04;100.00;101575.97;4153172;28;20049;-77
2021/09/24 04:33:57;;;;;;;2.75;2.17;;;11.30;99.90;;;10.95;100.00;101560.97;4152778;28;20026;-76
2021/09/24 04:35:59;;;;;;;3.50;2.22;;;11.20;99.90;;;10.95;100.00;101575.97;4154129;28;20030;-77
2021/09/24 04:37:59;;;;;;;3.03;2.15;;;11.30;99.90;;;10.91;99.95;101571.94;4154267;28;20440;-76
2021/09/24 04:40:00;;;;;;;4.45;2.05;;;11.20;99.90;;;10.94;99.33;101569.00;4153018;28;20034;-77
2021/09/24 04:42:01;;;;;;;2.42;1.92;;;11.10;99.90;;;10.89;98.68;101564.16;4154093;28;20034;-77
2021/09/24 04:44:04;;;;;;;2.50;1.85;;;11.10;99.90;;;10.88;98.38;101567.75;4155017;28;20033;-77
2021/09/24 04:46:04;;;;;;;4.25;2.50;;;11.10;99.90;;;10.81;98.33;101556.06;4153028;28;20157;-77
2021/09/24 04:48:05;;;;;;;4.05;2.08;;;11.10;99.90;;;10.87;97.57;101560.00;4153765;28;20026;-76
2021/09/24 04:50:08;;;;;;;2.67;2.03;;;11.10;99.90;;;10.79;97.86;101558.03;4152702;28;20041;-76
2021/09/24 04:52:09;;;;;;;2.17;1.90;;;11.00;99.90;;;10.78;98.17;101556.34;4152771;28;20061;-76
2021/09/24 04:54:10;;;;;;;4.50;2.08;;;11.00;99.90;;;10.81;97.75;101555.25;4152790;28;20018;-77
2021/09/24 04:56:11;;;;;;;3.70;1.70;;;11.00;99.90;;;10.76;97.47;101558.31;4153911;28;20038;-77
2021/09/24 04:58:12;;;;;;;4.18;2.00;;;11.00;99.90;;;10.62;97.60;101553.44;4153916;28;20099;-77
2021/09/24 05:00:13;;;;;;;3.03;2.72;;;10.90;99.90;;;10.66;97.35;101561.91;4153828;28;20109;-76
2021/09/24 05:02:15;;;;;;;2.60;1.90;;;10.90;99.90;;;10.58;97.44;101567.84;4152629;28;20810;-76
2021/09/24 05:04:15;;;;;;;4.53;2.17;;;10.90;99.90;;;10.49;97.76;101560.75;4136105;28;20062;-76
2021/09/24 05:06:17;;;;;;;3.00;2.22;;;10.80;99.90;;;10.51;98.17;101564.09;4153507;28;20042;-77
2021/09/24 05:08:17;;;;;;;2.28;2.08;;;10.80;99.90;;;10.55;98.35;101560.22;4152481;28;20040;-76
2021/09/24 05:10:18;;;;;;;2.40;2.17;;;10.80;99.90;;;10.55;98.54;101565.47;4166812;28;20033;-77
2021/09/24 05:12:19;;;;;;;2.58;2.25;;;10.80;99.90;;;10.55;98.18;101560.22;4153611;28;20057;-76
2021/09/24 05:14:20;;;;;;;3.03;2.35;;;10.80;99.90;;;10.49;98.09;101550.19;4152403;28;20105;-77
2021/09/24 05:16:21;;;;;;;2.20;2.00;;;10.80;99.90;;;10.50;98.81;101557.16;4153507;28;20085;-76
2021/09/24 05:18:22;;;;;;;3.75;2.47;;;10.80;99.90;;;10.46;98.97;101556.59;4153137;28;20029;-77
2021/09/24 05:20:25;;;;;;;3.35;2.10;;;10.80;99.90;;;10.47;98.78;101563.53;4153520;28;20568;-77
2021/09/24 05:22:26;;;;;;;2.55;2.00;;;10.80;99.90;;;10.46;98.65;101550.47;4153451;28;20057;-77
2021/09/24 05:24:27;;;;;;;3.50;2.45;;;10.70;99.90;;;10.49;98.24;101555.47;4152264;28;20065;-76
2021/09/24 05:26:28;;;;;;;3.47;1.92;;;10.70;99.90;;;10.44;97.17;101560.31;4135332;28;20061;-77
2021/09/24 05:28:29;;;;;;;3.97;2.25;;;10.70;99.90;;;10.35;97.58;101559.34;4152129;28;20034;-77
2021/09/24 05:30:30;;;;;;;2.50;2.30;;;10.60;99.90;;;10.29;98.12;101559.88;4151916;28;20060;-77
2021/09/24 05:32:31;;;;;;;3.08;2.08;;;10.60;99.90;;;10.31;98.37;101557.09;4152081;28;20113;-77
2021/09/24 05:34:32;;;;;;;3.30;2.15;;;10.60;99.90;;;10.31;98.05;101567.63;4151716;28;20462;-76
2021/09/24 05:36:33;;;;;;;2.97;2.45;;;10.60;99.90;;;10.31;98.26;101557.09;4153318;28;20110;-76
2021/09/24 05:38:34;;;;;;;2.72;2.28;;;10.60;99.90;;;10.29;97.73;101556.41;4153244;28;20033;-76
2021/09/24 05:40:35;;;;;;;2.97;2.40;;;10.60;99.90;;;10.28;97.63;101566.09;4153192;28;20033;-76
2021/09/24 05:42:36;;;;;;;3.00;1.80;;;10.50;99.90;;;10.15;98.00;101562.06;4151958;28;20386;-76
2021/09/24 05:44:37;;;;;;;2.38;1.90;;;10.50;99.90;;;10.13;98.19;101563.94;4165897;28;20029;-77
2021/09/24 05:46:41;;;;;;;2.92;2.05;;;10.50;99.90;;;10.18;98.14;101572.31;4151943;28;20064;-76
2021/09/24 05:48:42;;;;;;;4.57;1.92;;;10.40;99.90;;;10.15;98.16;101569.97;4151698;28;20620;-76
2021/09/24 05:50:43;;;;;;;5.82;2.40;;;10.40;99.90;;;10.12;99.17;101564.91;4148396;28;20029;-77
2021/09/24 05:52:55;;;;;;;3.25;2.00;;;10.40;99.90;;;10.18;98.75;101561.78;4164566;28;20168;-77
2021/09/24 05:54:55;;;;;;;4.07;2.13;;;10.40;99.90;;;10.13;98.25;101564.81;4159104;28;20030;-77
2021/09/24 05:56:56;;;;;;;4.10;2.33;;;10.40;99.90;;;10.14;97.97;101561.22;4163285;28;20025;-77
2021/09/24 05:58:57;;;;;;;7.85;3.10;;;10.50;99.90;;;10.17;96.89;101557.47;4169045;28;20021;-77
2021/09/24 06:00:58;;;;;;;2.20;2.00;;;10.50;99.90;;;10.19;96.39;101543.19;4168491;28;20033;-74
2021/09/24 06:02:59;;;;;;;4.70;2.65;;;10.40;99.90;;;10.16;96.64;101550.50;4155125;28;20109;-76
2021/09/24 06:05:00;;;;;;;4.90;2.70;;;10.40;99.90;;;10.41;97.17;101552.69;4152701;28;20501;-76
2021/09/24 06:07:01;;;;;;;5.13;3.50;;;10.50;99.90;;;10.62;97.51;101552.59;4151411;28;20051;-76
2021/09/24 06:09:03;;;;;;;3.00;2.50;;;10.60;99.90;;;10.53;99.17;101556.88;4157947;28;20081;-76
2021/09/24 06:11:04;;;;;;;3.20;2.83;;;10.70;99.90;;;10.60;97.91;101565.94;4159339;28;20073;-76
2021/09/24 06:13:07;;;;;;;3.80;2.42;;;10.70;99.90;;;10.38;98.92;101563.50;4163071;28;20033;-75
2021/09/24 06:15:08;;;;;;;5.97;4.15;;;10.70;99.90;;;10.60;100.00;101560.66;4136257;28;20379;-75
2021/09/24 06:17:11;;;;;;;6.40;4.63;;;10.70;99.90;;;10.65;100.00;101563.72;4151495;28;20101;-76
2021/09/24 06:19:12;;;;;;;6.35;2.75;;;10.80;99.90;;;10.64;100.00;101556.75;4151117;28;20022;-75
2021/09/24 06:21:13;;;;;;;5.63;3.85;;;10.90;99.90;;;10.56;100.00;101561.88;4152698;28;20476;-76
2021/09/24 06:23:14;;;;;;;3.03;2.42;;;10.80;99.90;;;10.41;100.00;101568.50;4152466;28;20124;-76
2021/09/24 06:25:16;;;;;;;3.72;3.20;;;10.80;99.90;;;10.46;100.00;101577.69;4151561;28;20109;-76
2021/09/24 06:27:17;;;;;;;4.53;3.53;;;10.70;99.90;;;10.55;100.00;101576.88;4152550;28;20535;-76
2021/09/24 06:29:18;;;;;;;2.78;2.47;;;10.80;99.90;;;10.52;100.00;101569.22;4157308;28;20029;-76
2021/09/24 06:31:19;;;;;;;3.13;2.75;;;10.80;99.90;;;10.47;100.00;101567.97;4150568;28;20045;-78
2021/09/24 06:33:20;;;;;;;2.83;2.22;;;10.80;99.90;;;10.43;100.00;101567.41;4152331;28;20072;-78
2021/09/24 06:35:22;;;;;;;3.83;2.42;;;10.80;99.90;;;10.40;100.00;101574.75;4151618;28;20026;-81
2021/09/24 06:37:23;;;;;;;4.03;2.55;;;10.80;99.90;;;10.34;100.00;101565.56;4151002;28;20022;-81
2021/09/24 06:39:24;;;;;;;3.88;3.13;;;10.70;99.90;;;10.33;100.00;101568.34;4151525;28;20030;-81
2021/09/24 06:41:25;;;;;;;3.53;3.05;;;10.80;99.90;;;10.36;100.00;101570.72;4151240;28;20494;-81
2021/09/24 06:43:26;;;;;;;4.47;3.47;;;10.80;99.90;;;10.47;100.00;101567.97;4151117;28;20109;-81
2021/09/24 06:45:27;;;;;;;4.35;3.95;;;10.80;99.90;;;10.48;100.00;101562.53;4153273;28;20029;-81
2021/09/24 06:47:28;;;;;;;4.35;2.90;;;10.90;99.90;;;10.56;100.00;101572.44;4150823;28;20021;-81
2021/09/24 06:49:29;;;;;;;3.97;2.83;;;10.90;99.90;;;10.68;100.00;101563.44;4151928;28;20025;-81
2021/09/24 06:51:30;;;;;;;3.58;3.28;;;11.00;99.90;;;10.77;100.00;101567.06;4153662;28;20026;-81
2021/09/24 06:53:33;;;;;;;3.70;3.13;;;11.00;99.90;;;10.81;100.00;101555.25;4159641;28;20029;-79
2021/09/24 06:55:34;;;;;;;3.80;3.40;;;11.10;99.90;;;10.87;100.00;101567.91;4150428;28;20025;-81
2021/09/24 06:57:35;;;;;;;3.30;2.58;;;11.20;99.90;;;10.88;100.00;101566.91;4150388;28;20033;-81
2021/09/24 06:59:37;;;;;;;5.38;3.03;;;11.20;99.90;;;11.13;100.00;101560.25;4149631;28;20034;-81
2021/09/24 07:01:38;;;;;;;5.55;4.32;;;11.30;99.90;;;11.33;100.00;101562.75;4150874;28;20025;-81
2021/09/24 07:03:38;;;;;;;3.88;3.40;;;11.40;99.90;;;11.33;100.00;101567.19;4150507;28;20161;-81
2021/09/24 07:05:39;;;;;;;5.65;3.92;;;11.60;99.90;;;11.54;100.00;101567.84;4150756;28;20050;-81
2021/09/24 07:07:44;;;;;;;4.38;3.83;;;11.60;99.90;;;11.52;100.00;101572.47;4152118;28;20473;-81
2021/09/24 07:09:45;;;;;;;5.65;4.18;;;11.80;99.90;;;11.46;100.00;101562.47;4161857;28;20037;-81
2021/09/24 07:11:50;;;;;;;6.55;4.38;;;11.80;99.90;;;11.55;100.00;101557.16;4152984;28;20022;-81
2021/09/24 07:13:51;;;;;;;5.85;4.60;;;11.90;99.90;;;11.50;100.00;101563.81;4152145;28;20104;-81
2021/09/24 07:15:52;;;;;;;6.68;4.38;;;11.90;99.90;;;11.53;100.00;101561.75;4150762;28;20026;-80
2021/09/24 07:17:53;;;;;;;4.25;3.85;;;11.90;99.90;;;11.61;100.00;101566.31;4150557;28;20069;-80
2021/09/24 07:19:56;;;;;;;4.03;3.58;;;11.90;99.90;;;11.60;100.00;101554.91;4151916;28;20052;-81
2021/09/24 07:21:57;;;;;;;5.47;4.03;;;12.00;99.90;;;11.53;100.00;101564.38;4150951;28;20030;-81
2021/09/24 07:24:00;;;;;;;5.03;4.10;;;12.00;99.90;;;11.62;100.00;101560.03;4150850;28;20082;-82
2021/09/24 07:26:00;;;;;;;6.93;4.35;;;12.00;99.90;;;11.58;100.00;101570.09;4150758;28;20037;-81
2021/09/24 07:28:01;;;;;;;4.30;3.63;;;12.00;99.90;;;11.47;100.00;101567.59;4151796;28;20057;-81
2021/09/24 07:30:03;;;;;;;5.95;4.25;;;12.00;99.90;;;11.56;100.00;101579.13;4150786;28;20537;-81
2021/09/24 07:32:05;;;;;;;4.90;4.40;;;12.00;99.90;;;11.58;100.00;101572.72;4150724;28;20029;-81
2021/09/24 07:34:06;;;;;;;8.30;4.57;;;12.00;99.90;;;11.62;100.00;101567.97;4150394;28;20040;-80
2021/09/24 07:36:07;;;;;;;5.50;4.35;;;12.00;99.90;;;11.58;100.00;101571.91;4151749;28;20018;-81
2021/09/24 07:38:08;;;;;;;4.57;4.10;;;12.10;99.90;;;11.65;100.00;101583.53;4150718;28;20102;-80
2021/09/24 07:40:10;;;;;;;5.50;4.07;;;12.10;99.90;;;11.72;100.00;101587.31;4150726;28;20042;-80
2021/09/24 07:42:11;;;;;;;6.13;4.25;;;12.10;99.90;;;11.73;100.00;101565.22;4144823;28;20021;-81
2021/09/24 07:44:12;;;;;;;4.38;3.97;;;12.20;99.90;;;11.79;100.00;101572.56;4154496;28;20025;-80
2021/09/24 07:46:13;;;;;;;6.15;4.97;;;12.30;99.90;;;11.91;100.00;101578.53;4150717;28;20061;-81
2021/09/24 07:48:13;;;;;;;3.65;3.35;;;12.30;99.90;;;12.04;100.00;101566.63;4134083;28;20092;-81
2021/09/24 07:50:15;;;;;;;4.50;3.90;;;12.30;99.90;;;12.04;100.00;101573.72;4153736;28;20113;-80
2021/09/24 07:52:15;;;;;;;5.13;3.53;;;12.50;99.90;;;12.14;100.00;101575.38;4154938;28;20022;-80
2021/09/24 07:54:16;;;;;;;4.13;3.65;;;12.50;99.90;;;12.08;100.00;101575.09;4154860;28;20092;-80
2021/09/24 07:56:17;;;;;;;4.50;4.10;;;12.50;99.90;;;12.19;100.00;101569.63;4153775;28;20113;-80
2021/09/24 07:58:18;;;;;;;5.05;3.67;;;12.60;99.90;;;12.18;100.00;101573.28;4154809;28;20037;-80
2021/09/24 08:00:19;;;;;;;5.70;4.70;;;12.70;99.90;;;12.25;100.00;101576.13;4154780;28;20437;-80
2021/09/24 08:02:20;;;;;;;5.35;3.90;;;12.80;99.90;;;12.19;100.00;101570.47;4153484;28;20069;-80
2021/09/24 08:04:21;;;;;;;5.10;4.57;;;12.80;99.90;;;12.19;100.00;101573.09;4154576;28;20172;-80
2021/09/24 08:06:22;;;;;;;4.75;4.30;;;12.70;99.90;;;12.24;100.00;101564.75;4153280;28;20053;-80
2021/09/24 08:08:23;;;;;;;5.95;4.45;;;12.80;99.90;;;12.27;100.00;101563.63;4137175;28;20030;-80
2021/09/24 08:10:25;;;;;;;4.65;4.25;;;12.90;99.90;;;12.39;100.00;101573.03;4167658;28;20030;-80
2021/09/24 08:12:25;;;;;;;7.97;4.43;;;12.90;99.90;;;12.41;100.00;101566.59;4154683;28;20052;-80
2021/09/24 08:14:26;;;;;;;5.90;4.60;;;13.00;99.90;;;12.50;100.00;101571.00;4154673;28;20034;-79
2021/09/24 08:16:27;;;;;;;4.32;3.80;;;13.00;99.90;;;12.36;100.00;101563.56;4153312;28;20022;-79
2021/09/24 08:18:28;;;;;;;5.57;4.05;;;13.10;99.90;;;12.34;100.00;101556.75;4153068;28;20042;-79
2021/09/24 08:20:29;;;;;;;6.00;3.72;;;13.10;99.90;;;12.47;100.00;101571.31;4153346;28;20567;-79